»·PEaware :: N35CF KSJC-KLAX

N35CF :: KSJC-KLAX

FLIGHT INFORMATION

Flight Status: Arrived
Operator: Privately registered:
United States
More flights under this callsign
Pilot: Anonymous 18613 (18613)
Aircraft: BEECH AIRCRAFT A90-E90 KING AIR
(BE9L)
More flights by this aircraft type
Origin: KSJC Mineta San Jose Intl
United States
Destination: KLAX Los Angeles Intl
United States
More flights between these airports :: More routes between these airports
Route: +SJC2 AVE EHF KIMMO3
File this flight plan on PilotEdge
Remarks:
Altitude:
(Current/Filed)
11,000ft
Speed:
(Current/Filed)
220kts
Departed: 03-Dec-18 04:08 PM
Arrived: 03-Dec-18 05:37 PM
Distance/Time
Traveled:
268nm/1:29
Distance/Time
To Go:
Arrived

Flight Plot

Page will automatically refresh every two minutes.

Flight plan parsing failed; only flown route is shown


Map Options




Map Legend


Flown Route
Filed Route
Departure Airport
Arrival Airport
Navaid (VOR, NDB)
Fix

Horizontal Profiles

Position Reports

Time Latitude Longitude Heading Altitude Ground
Speed
03-Dec-18 15:49 37.351907 -121.920942 49 59ft 0kts
03-Dec-18 15:50 37.351907 -121.920942 49 59ft 0kts
03-Dec-18 15:51 37.351907 -121.920942 49 59ft 0kts
03-Dec-18 15:52 37.351907 -121.920942 49 59ft 0kts
03-Dec-18 15:53 37.351907 -121.920942 49 59ft 0kts
03-Dec-18 15:54 37.351907 -121.920942 49 59ft 0kts
03-Dec-18 15:55 37.351907 -121.920942 49 59ft 0kts
03-Dec-18 15:56 37.351907 -121.920942 49 59ft 0kts
03-Dec-18 15:57 37.351907 -121.920942 49 59ft 0kts
03-Dec-18 15:58 37.351907 -121.920942 49 59ft 0kts
03-Dec-18 15:59 37.351907 -121.920942 49 59ft 0kts
03-Dec-18 16:00 37.351907 -121.920942 49 59ft 0kts
03-Dec-18 16:01 37.351907 -121.920942 49 59ft 0kts
03-Dec-18 16:02 37.351907 -121.920942 49 59ft 0kts
03-Dec-18 16:03 37.351907 -121.920942 49 59ft 0kts
03-Dec-18 16:04 37.351945 -121.920887 48 59ft 3kts
03-Dec-18 16:05 37.352128 -121.919710 70 60ft 0kts
03-Dec-18 16:06 37.352705 -121.919134 10 60ft 10kts
03-Dec-18 16:07 37.367115 -121.934612 319 338ft 148kts
03-Dec-18 16:08 37.400987 -121.969941 330 2100ft 160kts
03-Dec-18 16:09 37.411339 -121.938415 146 3652ft 171kts
03-Dec-18 16:10 37.381127 -121.895334 127 4973ft 191kts
03-Dec-18 16:11 37.345555 -121.837178 127 5068ft 221kts
03-Dec-18 16:12 37.310219 -121.779480 128 6250ft 201kts
03-Dec-18 16:13 37.277780 -121.725542 128 7439ft 189kts
03-Dec-18 16:14 37.242555 -121.679972 140 8632ft 179kts
03-Dec-18 16:15 37.206007 -121.639094 141 9828ft 174kts
03-Dec-18 16:16 37.170529 -121.599559 141 10946ft 172kts
03-Dec-18 16:18 37.129944 -121.554541 141 10992ft 211kts
03-Dec-18 16:19 37.084654 -121.504305 141 10992ft 223kts
03-Dec-18 16:20 37.037761 -121.452354 141 10992ft 226kts
03-Dec-18 16:21 36.991247 -121.400898 141 10992ft 228kts
03-Dec-18 16:22 36.943631 -121.348312 141 10992ft 229kts
03-Dec-18 16:23 36.896235 -121.296440 142 10989ft 229kts
03-Dec-18 16:24 36.848209 -121.244276 141 10990ft 229kts
03-Dec-18 16:25 36.800239 -121.191761 141 10990ft 229kts
03-Dec-18 16:26 36.752406 -121.139252 141 10990ft 230kts
03-Dec-18 16:27 36.704407 -121.086840 141 10990ft 230kts
03-Dec-18 16:28 36.656184 -121.034166 141 10990ft 231kts
03-Dec-18 16:29 36.607884 -120.981552 141 11015ft 230kts
03-Dec-18 16:30 36.559712 -120.929115 141 11021ft 231kts
03-Dec-18 16:31 36.511278 -120.876462 141 11027ft 231kts
03-Dec-18 16:32 36.462909 -120.823993 141 11030ft 231kts
03-Dec-18 16:33 36.414460 -120.771535 141 11021ft 231kts
03-Dec-18 16:34 36.366003 -120.719147 141 11009ft 231kts
03-Dec-18 16:35 36.315505 -120.672004 136 11011ft 231kts
03-Dec-18 16:36 36.268981 -120.618526 141 11007ft 231kts
03-Dec-18 16:37 36.220207 -120.566680 142 11006ft 231kts
03-Dec-18 16:38 36.171049 -120.515483 142 10997ft 231kts
03-Dec-18 16:39 36.121742 -120.464437 142 10994ft 231kts
03-Dec-18 16:39 36.080856 -120.422219 142 11004ft 231kts
03-Dec-18 16:41 36.023875 -120.363487 142 11017ft 231kts
03-Dec-18 16:41 35.983545 -120.322156 143 11022ft 231kts
03-Dec-18 16:43 35.926257 -120.263336 143 11017ft 231kts
03-Dec-18 16:43 35.890184 -120.226471 143 11010ft 231kts
03-Dec-18 16:44 35.840687 -120.176163 143 11005ft 231kts
03-Dec-18 16:45 35.791603 -120.126002 143 10990ft 231kts
03-Dec-18 16:47 35.734222 -120.067466 143 10986ft 231kts
03-Dec-18 16:47 35.693790 -120.026317 143 10984ft 230kts
03-Dec-18 16:48 35.644437 -119.976616 142 10982ft 228kts
03-Dec-18 16:49 35.630088 -119.901253 99 10988ft 233kts
03-Dec-18 16:50 35.618442 -119.822973 102 10994ft 233kts
03-Dec-18 16:51 35.605041 -119.745183 103 11000ft 233kts
03-Dec-18 16:52 35.591380 -119.668600 103 11000ft 233kts
03-Dec-18 16:53 35.577338 -119.590725 103 11001ft 233kts
03-Dec-18 16:54 35.563152 -119.513073 103 11001ft 233kts
03-Dec-18 16:55 35.548742 -119.435442 103 11001ft 233kts
03-Dec-18 16:56 35.534223 -119.357868 103 11001ft 233kts
03-Dec-18 16:57 35.519521 -119.281279 104 10999ft 233kts
03-Dec-18 16:58 35.504841 -119.204085 104 10996ft 233kts
03-Dec-18 16:59 35.490150 -119.126574 104 10993ft 233kts
03-Dec-18 17:00 35.460322 -119.061001 145 10992ft 228kts
03-Dec-18 17:01 35.411677 -119.010782 140 10990ft 229kts
03-Dec-18 17:02 35.364532 -118.957709 139 10990ft 231kts
03-Dec-18 17:03 35.317498 -118.903699 139 10991ft 233kts
03-Dec-18 17:04 35.270036 -118.849016 138 10991ft 235kts
03-Dec-18 17:05 35.222330 -118.794126 138 10992ft 237kts
03-Dec-18 17:06 35.172238 -118.743786 173 11000ft 230kts
03-Dec-18 17:07 35.109254 -118.726516 169 11005ft 231kts
03-Dec-18 17:08 35.048179 -118.705967 168 10990ft 226kts
03-Dec-18 17:09 34.987966 -118.684810 168 10991ft 225kts
03-Dec-18 17:10 34.927619 -118.663421 168 10991ft 227kts
03-Dec-18 17:11 34.867389 -118.642144 168 10993ft 227kts
03-Dec-18 17:12 34.806655 -118.620814 168 10998ft 227kts
03-Dec-18 17:13 34.746172 -118.599397 167 11004ft 230kts
03-Dec-18 17:14 34.683845 -118.577211 167 11002ft 235kts
03-Dec-18 17:15 34.624418 -118.543026 156 10991ft 238kts
03-Dec-18 17:16 34.565155 -118.507784 157 10983ft 238kts
03-Dec-18 17:17 34.505912 -118.472971 157 11032ft 236kts
03-Dec-18 17:18 34.446896 -118.438431 157 11023ft 229kts
03-Dec-18 17:19 34.389690 -118.405025 157 11019ft 232kts
03-Dec-18 17:20 34.331093 -118.370862 157 11015ft 234kts
03-Dec-18 17:21 34.279475 -118.340920 158 11006ft 235kts
03-Dec-18 17:22 34.220731 -118.306998 158 10999ft 235kts
03-Dec-18 17:23 34.162650 -118.273281 157 10781ft 216kts
03-Dec-18 17:24 34.109078 -118.242211 156 9782ft 215kts
03-Dec-18 17:25 34.058208 -118.212499 158 8980ft 185kts
03-Dec-18 17:26 34.020370 -118.188731 157 8982ft 124kts
03-Dec-18 17:27 33.988765 -118.171026 167 7544ft 126kts
03-Dec-18 17:28 33.955528 -118.160622 167 5023ft 122kts
03-Dec-18 17:29 33.954907 -118.141451 333 3658ft 130kts
03-Dec-18 17:30 33.958921 -118.181460 249 2475ft 130kts
03-Dec-18 17:31 33.953261 -118.226108 260 2308ft 139kts
03-Dec-18 17:32 33.948443 -118.269996 263 1945ft 139kts
03-Dec-18 17:33 33.943997 -118.316782 264 1276ft 140kts
03-Dec-18 17:34 33.939304 -118.362990 263 483ft 135kts
03-Dec-18 17:35 33.935780 -118.398072 264 107ft 58kts
03-Dec-18 17:36 33.934257 -118.401071 84 113ft 23kts
03-Dec-18 17:37 33.934178 -118.393938 194 102ft 10kts
03-Dec-18 17:38 33.933794 -118.394216 266 103ft 0kts
03-Dec-18 17:39 33.933794 -118.394216 266 103ft 0kts
03-Dec-18 17:40 33.933794 -118.394216 266 103ft 0kts

Navigation Log

Ident Type
Flight plan parsing failed, navigation log unavailable